createdAt,value
2022-09-28T00:00:22.805Z,8.48
2022-09-28T00:01:22.848Z,8.48
2022-09-28T00:02:22.867Z,8.45
2022-09-28T00:03:22.774Z,8.51
2022-09-28T00:04:22.768Z,8.51
2022-09-28T00:05:22.755Z,8.48
2022-09-28T00:06:22.759Z,8.47
2022-09-28T00:07:22.746Z,8.44
2022-09-28T00:08:22.745Z,8.55
2022-09-28T00:09:22.737Z,8.57
2022-09-28T00:10:22.725Z,8.62
2022-09-28T00:11:22.747Z,8.60
2022-09-28T00:12:22.717Z,8.47
2022-09-28T00:13:22.704Z,8.50
2022-09-28T00:14:22.708Z,8.62
2022-09-28T00:15:22.699Z,8.65
2022-09-28T00:16:22.753Z,8.57
2022-09-28T00:17:22.672Z,8.57
2022-09-28T00:18:22.676Z,8.58
2022-09-28T00:19:22.664Z,8.57
2022-09-28T00:20:22.665Z,8.68
2022-09-28T00:21:22.648Z,8.63
2022-09-28T00:22:22.651Z,8.65
2022-09-28T00:23:22.633Z,8.50
2022-09-28T00:24:27.274Z,8.60
2022-09-28T00:25:24.647Z,8.55
2022-09-28T00:26:22.615Z,8.62
2022-09-28T00:27:22.607Z,8.66
2022-09-28T00:28:22.600Z,8.65
2022-09-28T00:29:23.609Z,8.58
2022-09-28T00:30:22.618Z,8.60
2022-09-28T00:31:22.602Z,8.69
2022-09-28T00:32:22.583Z,8.58
2022-09-28T00:33:22.566Z,8.65
2022-09-28T00:34:22.567Z,8.54
2022-09-28T00:35:22.629Z,8.66
2022-09-28T00:36:22.550Z,8.63
2022-09-28T00:37:22.539Z,8.57
2022-09-28T00:38:22.534Z,8.55
2022-09-28T00:39:22.530Z,8.66
2022-09-28T00:40:22.538Z,8.58
2022-09-28T00:41:22.531Z,8.69
2022-09-28T00:42:22.514Z,8.55
2022-09-28T00:43:22.498Z,8.60
2022-09-28T00:44:22.496Z,8.65
2022-09-28T00:45:22.487Z,8.66
2022-09-28T00:46:22.499Z,8.63
2022-09-28T00:47:22.472Z,8.57
2022-09-28T00:48:22.473Z,8.71
2022-09-28T00:49:22.455Z,8.57
2022-09-28T00:50:22.442Z,8.57
2022-09-28T00:51:22.466Z,8.58
2022-09-28T00:52:22.431Z,8.51
2022-09-28T00:53:22.429Z,8.54
2022-09-28T00:54:22.419Z,8.66
2022-09-28T00:55:22.419Z,8.65
2022-09-28T00:56:22.459Z,8.55
2022-09-28T00:57:22.415Z,8.60
2022-09-28T00:58:22.391Z,8.55
2022-09-28T00:59:22.387Z,8.60
2022-09-28T01:00:22.378Z,8.58
2022-09-28T01:01:22.412Z,8.57
2022-09-28T01:02:22.415Z,8.54
2022-09-28T01:03:22.356Z,8.63
2022-09-28T01:04:23.547Z,8.51
2022-09-28T01:05:22.346Z,8.44
2022-09-28T01:06:22.337Z,8.55
2022-09-28T01:07:22.346Z,8.53
2022-09-28T01:08:22.325Z,8.62
2022-09-28T01:09:22.314Z,8.47
2022-09-28T01:10:22.304Z,8.48
2022-09-28T01:11:22.307Z,8.40
2022-09-28T01:12:22.298Z,8.50
2022-09-28T01:13:22.295Z,8.54
2022-09-28T01:14:22.294Z,8.54
2022-09-28T01:15:22.279Z,8.45
2022-09-28T01:16:22.334Z,8.47
2022-09-28T01:17:22.279Z,8.48
2022-09-28T01:18:22.266Z,8.48
2022-09-28T01:19:22.250Z,8.51
2022-09-28T01:20:22.245Z,8.50
2022-09-28T01:21:22.234Z,8.55
2022-09-28T01:22:22.223Z,8.54
2022-09-28T01:23:22.231Z,8.45
2022-09-28T01:24:22.217Z,8.54
2022-09-28T01:25:22.202Z,8.47
2022-09-28T01:26:22.202Z,8.42
2022-09-28T01:27:22.193Z,8.54
2022-09-28T01:28:22.207Z,8.68
2022-09-28T01:29:22.188Z,8.57
2022-09-28T01:30:22.174Z,8.53
2022-09-28T01:31:22.173Z,8.62
2022-09-28T01:32:22.155Z,8.57
2022-09-28T01:33:22.170Z,8.58
2022-09-28T01:34:22.144Z,8.58
2022-09-28T01:35:22.135Z,8.50
2022-09-28T01:36:22.131Z,8.62
2022-09-28T01:37:22.124Z,8.60
2022-09-28T01:38:22.116Z,8.58
2022-09-28T01:39:22.127Z,8.63
2022-09-28T01:40:22.154Z,8.57
2022-09-28T01:41:22.102Z,8.57
2022-09-28T01:42:22.094Z,8.54
2022-09-28T01:43:22.082Z,8.57
2022-09-28T01:44:22.095Z,8.58
2022-09-28T01:45:22.070Z,8.55
2022-09-28T01:46:22.057Z,8.57
2022-09-28T01:47:22.046Z,8.50
2022-09-28T01:48:22.046Z,8.55
2022-09-28T01:49:22.055Z,8.63
2022-09-28T01:50:22.022Z,8.53
2022-09-28T01:51:22.027Z,8.48
2022-09-28T01:52:22.018Z,8.54
2022-09-28T01:53:22.014Z,8.55
2022-09-28T01:54:22.004Z,8.60
2022-09-28T01:55:22.007Z,8.57
2022-09-28T01:56:21.986Z,8.54
2022-09-28T01:57:21.997Z,8.50
2022-09-28T01:58:21.975Z,8.42
2022-09-28T01:59:21.962Z,8.57
2022-09-28T02:00:21.974Z,8.55
2022-09-28T02:01:22.010Z,8.55
2022-09-28T02:02:21.989Z,8.57
2022-09-28T02:03:21.934Z,8.42
2022-09-28T02:04:21.934Z,8.42
2022-09-28T02:05:21.946Z,8.48
2022-09-28T02:06:21.922Z,8.50
2022-09-28T02:07:21.914Z,8.51
2022-09-28T02:08:21.899Z,8.50
2022-09-28T02:09:21.894Z,8.40
2022-09-28T02:10:21.906Z,8.50
2022-09-28T02:11:21.889Z,8.47
2022-09-28T02:12:21.886Z,8.42
2022-09-28T02:13:21.870Z,8.47
2022-09-28T02:14:21.870Z,8.47
2022-09-28T02:15:21.858Z,8.44
2022-09-28T02:16:21.898Z,8.36
2022-09-28T02:17:21.860Z,8.36
2022-09-28T02:18:21.843Z,8.48
2022-09-28T02:19:21.854Z,8.35
2022-09-28T02:20:21.819Z,8.32
2022-09-28T02:21:21.814Z,8.45
2022-09-28T02:22:21.819Z,8.30
2022-09-28T02:23:21.798Z,8.39
2022-09-28T02:24:21.837Z,8.33
2022-09-28T02:25:21.778Z,8.39
2022-09-28T02:26:21.781Z,8.36
2022-09-28T02:27:21.783Z,8.39
2022-09-28T02:28:21.767Z,8.37
2022-09-28T02:29:21.787Z,8.37
2022-09-28T02:30:21.742Z,8.39
2022-09-28T02:31:21.775Z,8.35
2022-09-28T02:32:21.759Z,8.33
2022-09-28T02:33:21.741Z,8.26
2022-09-28T02:34:21.718Z,8.40
2022-09-28T02:35:21.718Z,8.33
2022-09-28T02:36:21.702Z,8.28
2022-09-28T02:37:21.722Z,8.30
2022-09-28T02:38:21.698Z,8.35
2022-09-28T02:39:21.690Z,8.33
2022-09-28T02:40:21.753Z,8.26
2022-09-28T02:41:21.679Z,8.33
2022-09-28T02:42:21.678Z,8.32
2022-09-28T02:43:21.675Z,8.30
2022-09-28T02:44:21.659Z,8.35
2022-09-28T02:45:21.642Z,8.32
2022-09-28T02:46:21.646Z,8.30
2022-09-28T02:47:21.634Z,8.28
2022-09-28T02:48:41.167Z,8.25
2022-09-28T02:49:23.763Z,8.29
2022-09-28T02:50:21.614Z,8.32
2022-09-28T02:51:21.611Z,8.30
2022-09-28T02:52:21.594Z,8.28
2022-09-28T02:53:21.610Z,8.33
2022-09-28T02:54:21.590Z,8.26
2022-09-28T02:55:21.573Z,8.30
2022-09-28T02:56:21.574Z,8.20
2022-09-28T02:57:21.571Z,8.30
2022-09-28T02:58:21.583Z,8.25
2022-09-28T02:59:21.554Z,8.28
2022-09-28T03:00:21.546Z,8.28
2022-09-28T03:01:21.612Z,8.28
2022-09-28T03:02:21.556Z,8.22
2022-09-28T03:03:21.533Z,8.28
2022-09-28T03:04:22.533Z,8.32
2022-09-28T03:05:21.493Z,8.32
2022-09-28T03:06:22.510Z,8.29
2022-09-28T03:07:21.502Z,8.28
2022-09-28T03:08:21.511Z,8.33
2022-09-28T03:09:21.489Z,8.28
2022-09-28T03:10:21.474Z,8.30
2022-09-28T03:11:21.475Z,8.20
2022-09-28T03:12:21.478Z,8.29
2022-09-28T03:13:21.473Z,8.36
2022-09-28T03:14:21.445Z,8.32
2022-09-28T03:15:21.450Z,8.33
2022-09-28T03:16:21.496Z,8.26
2022-09-28T03:17:21.431Z,8.30
2022-09-28T03:18:21.426Z,8.22
2022-09-28T03:19:21.433Z,8.25
2022-09-28T03:20:21.408Z,8.22
2022-09-28T03:21:21.397Z,8.28
2022-09-28T03:22:21.397Z,8.29
2022-09-28T03:23:25.455Z,8.30
2022-09-28T03:24:22.394Z,8.29
2022-09-28T03:25:21.375Z,8.28
2022-09-28T03:26:21.370Z,8.20
2022-09-28T03:27:21.354Z,8.25
2022-09-28T03:28:21.356Z,8.28
2022-09-28T03:29:21.358Z,8.32
2022-09-28T03:30:21.334Z,8.30
2022-09-28T03:31:21.369Z,8.29
2022-09-28T03:32:21.329Z,8.28
2022-09-28T03:33:21.321Z,8.30
2022-09-28T03:34:21.325Z,8.26
2022-09-28T03:35:21.306Z,8.33
2022-09-28T03:36:21.302Z,8.21
2022-09-28T03:37:21.286Z,8.33
2022-09-28T03:38:21.314Z,8.26
2022-09-28T03:39:21.282Z,8.28
2022-09-28T03:40:21.301Z,8.20
2022-09-28T03:41:21.265Z,8.28
2022-09-28T03:42:21.253Z,8.18
2022-09-28T03:43:21.254Z,8.28
2022-09-28T03:44:21.234Z,8.30
2022-09-28T03:45:21.234Z,8.39
2022-09-28T03:46:21.328Z,8.22
2022-09-28T03:47:21.218Z,8.37
2022-09-28T03:48:25.041Z,8.30
2022-09-28T03:49:23.201Z,8.40
2022-09-28T03:50:21.195Z,8.37
2022-09-28T03:51:21.205Z,8.33
2022-09-28T03:52:21.193Z,8.44
2022-09-28T03:53:21.175Z,8.33
2022-09-28T03:54:21.173Z,8.36
2022-09-28T03:55:21.178Z,8.30
2022-09-28T03:56:21.165Z,8.39
2022-09-28T03:57:21.158Z,8.29
2022-09-28T03:58:21.136Z,8.35
2022-09-28T03:59:21.141Z,8.28
2022-09-28T04:00:21.133Z,8.37
2022-09-28T04:01:21.170Z,8.33
2022-09-28T04:02:21.164Z,8.36
2022-09-28T04:03:21.102Z,8.45
2022-09-28T04:04:21.094Z,8.37
2022-09-28T04:05:21.093Z,8.35
2022-09-28T04:06:21.117Z,8.33
2022-09-28T04:07:21.071Z,8.29
2022-09-28T04:08:22.057Z,8.26
2022-09-28T04:09:21.053Z,8.30
2022-09-28T04:10:21.049Z,8.30
2022-09-28T04:11:21.053Z,8.32
2022-09-28T04:12:21.041Z,8.32
2022-09-28T04:13:21.035Z,8.30
2022-09-28T04:14:21.021Z,8.26
2022-09-28T04:15:21.018Z,8.25
2022-09-28T04:16:21.072Z,8.25
2022-09-28T04:17:21.001Z,8.30
2022-09-28T04:18:21.002Z,8.25
2022-09-28T04:19:21.032Z,8.33
2022-09-28T04:20:21.006Z,8.28
2022-09-28T04:21:21.100Z,8.32
2022-09-28T04:22:20.964Z,8.30
2022-09-28T04:23:20.957Z,8.30
2022-09-28T04:24:20.949Z,8.30
2022-09-28T04:25:20.953Z,8.30
2022-09-28T04:26:20.945Z,8.22
2022-09-28T04:27:20.937Z,8.29
2022-09-28T04:28:20.929Z,8.32
2022-09-28T04:29:21.126Z,8.29
2022-09-28T04:30:20.911Z,8.30
2022-09-28T04:31:20.918Z,8.39
2022-09-28T04:32:20.918Z,8.35
2022-09-28T04:33:20.893Z,8.36
2022-09-28T04:34:20.875Z,8.36
2022-09-28T04:35:20.886Z,8.40
2022-09-28T04:36:20.861Z,8.45
2022-09-28T04:37:20.865Z,8.50
2022-09-28T04:38:35.901Z,8.37
2022-09-28T04:39:22.849Z,8.37
2022-09-28T04:40:20.856Z,8.42
2022-09-28T04:41:20.845Z,8.48
2022-09-28T04:42:20.865Z,8.37
2022-09-28T04:43:20.814Z,8.54
2022-09-28T04:44:20.813Z,8.45
2022-09-28T04:45:20.821Z,8.55
2022-09-28T04:46:20.821Z,8.53
2022-09-28T04:47:20.813Z,8.54
2022-09-28T04:48:20.781Z,8.53
2022-09-28T04:49:20.785Z,8.54
2022-09-28T04:50:20.770Z,8.57
2022-09-28T04:51:20.761Z,8.55
2022-09-28T04:52:20.753Z,8.60
2022-09-28T04:53:20.793Z,8.51
2022-09-28T04:54:20.741Z,8.50
2022-09-28T04:55:20.734Z,8.54
2022-09-28T04:56:20.725Z,8.58
2022-09-28T04:57:20.718Z,8.63
2022-09-28T04:58:20.721Z,8.57
2022-09-28T04:59:20.693Z,8.58
2022-09-28T05:00:20.705Z,8.50
2022-09-28T05:01:20.764Z,8.62
2022-09-28T05:02:20.705Z,8.44
2022-09-28T05:03:20.677Z,8.55
2022-09-28T05:04:25.639Z,8.58
2022-09-28T05:05:22.657Z,8.48
2022-09-28T05:06:20.649Z,8.53
2022-09-28T05:07:20.651Z,8.54
2022-09-28T05:08:20.644Z,8.47
2022-09-28T05:09:20.658Z,8.53
2022-09-28T05:10:20.625Z,8.51
2022-09-28T05:11:20.629Z,8.55
2022-09-28T05:12:20.612Z,8.55
2022-09-28T05:13:20.604Z,8.54
2022-09-28T05:14:20.593Z,8.58
2022-09-28T05:15:20.613Z,8.62
2022-09-28T05:16:20.683Z,8.65
2022-09-28T05:17:20.589Z,8.72
2022-09-28T05:18:20.582Z,8.65
2022-09-28T05:19:20.567Z,8.81
2022-09-28T05:20:20.578Z,8.69
2022-09-28T05:21:20.549Z,8.86
2022-09-28T05:22:20.541Z,8.87
2022-09-28T05:23:20.542Z,8.91
2022-09-28T05:24:20.545Z,8.87
2022-09-28T05:25:20.534Z,8.88
2022-09-28T05:26:20.524Z,8.90
2022-09-28T05:27:20.551Z,8.88
2022-09-28T05:28:20.493Z,8.87
2022-09-28T05:29:20.500Z,8.91
2022-09-28T05:30:20.505Z,9.01
2022-09-28T05:31:20.519Z,8.99
2022-09-28T05:32:20.474Z,8.97
2022-09-28T05:33:20.470Z,9.04
2022-09-28T05:34:20.448Z,8.97
2022-09-28T05:35:20.480Z,9.04
2022-09-28T05:36:20.460Z,9.01
2022-09-28T05:37:20.452Z,8.99
2022-09-28T05:38:20.436Z,9.01
2022-09-28T05:39:20.436Z,9.04
2022-09-28T05:40:20.490Z,8.97
2022-09-28T05:41:20.416Z,8.96
2022-09-28T05:42:20.408Z,9.10
2022-09-28T05:43:20.409Z,9.05
2022-09-28T05:44:20.423Z,9.05
2022-09-28T05:45:20.401Z,8.97
2022-09-28T05:46:20.475Z,8.99
2022-09-28T05:47:20.400Z,8.91
2022-09-28T05:48:20.364Z,9.02
2022-09-28T05:49:20.360Z,8.96
2022-09-28T05:50:20.354Z,8.91
2022-09-28T05:51:20.344Z,8.87
2022-09-28T05:52:20.360Z,8.91
2022-09-28T05:53:20.331Z,8.83
2022-09-28T05:54:20.488Z,8.75
2022-09-28T05:55:20.318Z,8.73
2022-09-28T05:56:20.304Z,8.78
2022-09-28T05:57:20.301Z,8.76
2022-09-28T05:58:20.316Z,8.71
2022-09-28T05:59:20.282Z,8.71
2022-09-28T06:00:20.288Z,8.58
2022-09-28T06:01:20.320Z,8.58
2022-09-28T06:02:20.328Z,8.53
2022-09-28T06:03:20.276Z,8.72
2022-09-28T06:04:20.260Z,8.63
2022-09-28T06:05:20.244Z,8.69
2022-09-28T06:06:20.240Z,8.66
2022-09-28T06:07:20.241Z,8.75
2022-09-28T06:08:20.217Z,8.79
2022-09-28T06:09:25.142Z,8.76
2022-09-28T06:10:21.212Z,8.81
2022-09-28T06:11:21.200Z,8.84
2022-09-28T06:12:20.197Z,8.86
2022-09-28T06:13:20.192Z,8.78
2022-09-28T06:14:20.196Z,8.81
2022-09-28T06:15:20.185Z,8.86
2022-09-28T06:16:20.224Z,8.78
2022-09-28T06:17:20.178Z,8.78
2022-09-28T06:18:20.185Z,8.75
2022-09-28T06:19:20.152Z,8.81
2022-09-28T06:20:20.156Z,8.90
2022-09-28T06:21:20.133Z,8.83
2022-09-28T06:22:20.130Z,8.87
2022-09-28T06:23:20.124Z,8.94
2022-09-28T06:24:20.116Z,9.01
2022-09-28T06:25:20.124Z,9.04
2022-09-28T06:26:20.088Z,9.01
2022-09-28T06:27:20.100Z,9.10
2022-09-28T06:28:20.084Z,9.01
2022-09-28T06:29:20.091Z,9.20
2022-09-28T06:30:20.093Z,9.25
2022-09-28T06:31:20.126Z,9.35
2022-09-28T06:32:20.047Z,9.32
2022-09-28T06:33:20.052Z,9.43
2022-09-28T06:34:20.056Z,9.48
2022-09-28T06:35:20.049Z,9.57
2022-09-28T06:36:20.036Z,9.56
2022-09-28T06:37:20.038Z,9.64
2022-09-28T06:38:20.020Z,9.71
2022-09-28T06:39:20.012Z,9.82
2022-09-28T06:40:20.077Z,9.81
2022-09-28T06:41:19.988Z,9.82
2022-09-28T06:42:20.000Z,9.82
2022-09-28T06:43:19.992Z,9.85
2022-09-28T06:44:19.992Z,9.89
2022-09-28T06:45:20.007Z,10.01
2022-09-28T06:46:20.071Z,10.01
2022-09-28T06:47:19.956Z,9.94
2022-09-28T06:48:19.965Z,10.07
2022-09-28T06:49:19.956Z,10.06
2022-09-28T06:50:19.939Z,10.15
2022-09-28T06:51:19.928Z,10.17
2022-09-28T06:52:19.937Z,10.32
2022-09-28T06:53:19.911Z,10.33
2022-09-28T06:54:19.911Z,10.40
2022-09-28T06:55:19.909Z,10.53
2022-09-28T06:56:19.919Z,10.71
2022-09-28T06:57:19.897Z,10.74
2022-09-28T06:58:19.889Z,10.77
2022-09-28T06:59:19.892Z,10.78
2022-09-28T07:00:19.870Z,11.10
2022-09-28T07:01:19.953Z,11.20
2022-09-28T07:02:19.887Z,11.29
2022-09-28T07:03:19.853Z,11.44
2022-09-28T07:04:19.848Z,11.56
2022-09-28T07:05:19.847Z,12.11
2022-09-28T07:06:19.839Z,12.27
2022-09-28T07:07:19.837Z,12.20
2022-09-28T07:08:19.828Z,12.21
2022-09-28T07:09:31.489Z,12.30
2022-09-28T07:10:21.809Z,12.30
2022-09-28T07:11:19.816Z,12.37
2022-09-28T07:12:19.792Z,12.23
2022-09-28T07:13:46.331Z,12.27
2022-09-28T07:14:42.914Z,12.24
2022-09-28T07:15:21.771Z,12.31
2022-09-28T07:16:25.659Z,12.63
2022-09-28T07:17:20.826Z,12.89
2022-09-28T07:18:19.821Z,12.97
2022-09-28T07:19:19.744Z,12.81
2022-09-28T07:20:20.034Z,12.79
2022-09-28T07:21:29.201Z,12.66
2022-09-28T07:22:31.972Z,12.64
2022-09-28T07:23:21.721Z,12.79
2022-09-28T07:24:20.235Z,13.32
2022-09-28T07:25:19.700Z,13.49
2022-09-28T07:26:23.185Z,13.36
2022-09-28T07:27:22.553Z,13.30
2022-09-28T07:28:19.712Z,13.33
2022-09-28T07:29:19.685Z,13.30
2022-09-28T07:30:19.676Z,14.31
2022-09-28T07:31:19.709Z,14.19
2022-09-28T07:32:19.666Z,13.94
2022-09-28T07:33:19.659Z,13.88
2022-09-28T07:34:19.647Z,13.83
2022-09-28T07:35:20.667Z,13.62
2022-09-28T07:36:19.636Z,14.35
2022-09-28T07:37:19.643Z,15.61
2022-09-28T07:38:19.636Z,16.77
2022-09-28T07:39:19.617Z,17.44
2022-09-28T07:40:19.697Z,17.53
2022-09-28T07:41:19.608Z,17.29
2022-09-28T07:42:19.593Z,17.18
2022-09-28T07:43:19.585Z,16.59
2022-09-28T07:44:19.584Z,15.99
2022-09-28T07:45:19.597Z,15.75
2022-09-28T07:46:19.620Z,15.28
2022-09-28T07:47:19.556Z,14.71
2022-09-28T07:48:19.556Z,14.65
2022-09-28T07:49:19.621Z,14.62
2022-09-28T07:50:19.563Z,14.67
2022-09-28T07:51:19.527Z,14.46
2022-09-28T07:52:19.516Z,14.10
2022-09-28T07:53:19.516Z,13.87
2022-09-28T07:54:19.505Z,13.63
2022-09-28T07:55:19.521Z,13.54
2022-09-28T07:56:19.496Z,13.61
2022-09-28T07:57:19.495Z,13.38
2022-09-28T07:58:19.486Z,13.11
2022-09-28T07:59:19.509Z,13.09
2022-09-28T08:00:19.472Z,13.21
2022-09-28T08:01:19.533Z,13.67
2022-09-28T08:02:19.507Z,15.01
2022-09-28T08:03:19.452Z,15.27
2022-09-28T08:04:19.441Z,15.70
2022-09-28T08:05:19.438Z,16.07
2022-09-28T08:06:19.428Z,16.56
2022-09-28T08:07:23.492Z,16.49
2022-09-28T08:08:20.446Z,16.20
2022-09-28T08:09:19.451Z,16.07
2022-09-28T08:10:19.405Z,16.01
2022-09-28T08:11:19.401Z,15.84
2022-09-28T08:12:19.384Z,15.68
2022-09-28T08:13:21.239Z,15.59
2022-09-28T08:14:19.384Z,15.48
2022-09-28T08:15:19.364Z,15.06
2022-09-28T08:16:19.493Z,14.90
2022-09-28T08:17:19.352Z,14.71
2022-09-28T08:18:19.344Z,14.62
2022-09-28T08:19:19.521Z,14.64
2022-09-28T08:20:19.328Z,14.67
2022-09-28T08:21:19.332Z,14.75
2022-09-28T08:22:19.337Z,14.67
2022-09-28T08:23:19.303Z,14.88
2022-09-28T08:24:19.490Z,14.72
2022-09-28T08:25:19.296Z,14.90
2022-09-28T08:26:19.288Z,14.91
2022-09-28T08:27:19.292Z,14.99
2022-09-28T08:28:19.280Z,15.13
2022-09-28T08:29:19.260Z,15.20
2022-09-28T08:30:19.256Z,14.94
2022-09-28T08:31:19.310Z,14.83
2022-09-28T08:32:19.232Z,14.65
2022-09-28T08:33:20.251Z,14.46
2022-09-28T08:34:19.375Z,14.52
2022-09-28T08:35:19.228Z,14.47
2022-09-28T08:36:19.229Z,14.34
2022-09-28T08:37:19.205Z,14.42
2022-09-28T08:38:19.203Z,14.39
2022-09-28T08:39:19.199Z,14.38
2022-09-28T08:40:19.240Z,14.28
2022-09-28T08:41:19.187Z,14.44
2022-09-28T08:42:19.178Z,14.37
2022-09-28T08:43:19.166Z,14.19
2022-09-28T08:44:19.152Z,13.67
2022-09-28T08:45:19.194Z,13.30
2022-09-28T08:46:22.699Z,13.06
2022-09-28T08:47:20.136Z,13.11
2022-09-28T08:48:19.128Z,13.07
2022-09-28T08:49:25.478Z,13.02
2022-09-28T08:50:21.137Z,12.89
2022-09-28T08:51:19.104Z,13.03
2022-09-28T08:52:19.123Z,12.81
2022-09-28T08:53:19.083Z,12.66
2022-09-28T08:54:19.126Z,12.60
2022-09-28T08:55:19.082Z,12.62
2022-09-28T08:56:19.077Z,12.62
2022-09-28T08:57:19.075Z,12.51
2022-09-28T08:58:19.058Z,12.30
2022-09-28T08:59:19.048Z,12.44
2022-09-28T09:00:19.035Z,12.38
2022-09-28T09:01:19.089Z,12.26
2022-09-28T09:02:19.075Z,12.41
2022-09-28T09:03:19.023Z,12.49
2022-09-28T09:04:19.152Z,12.49
2022-09-28T09:05:19.008Z,12.46
2022-09-28T09:06:18.999Z,12.49
2022-09-28T09:07:18.991Z,12.60
2022-09-28T09:08:18.993Z,12.69
2022-09-28T09:09:18.979Z,12.70
2022-09-28T09:10:18.967Z,12.69
2022-09-28T09:11:18.957Z,12.74
2022-09-28T09:12:18.960Z,12.92
2022-09-28T09:13:18.959Z,12.92
2022-09-28T09:14:18.974Z,13.00
2022-09-28T09:15:18.915Z,13.25
2022-09-28T09:16:19.003Z,13.83
2022-09-28T09:17:18.916Z,14.21
2022-09-28T09:18:20.000Z,15.42
2022-09-28T09:19:19.903Z,17.15
2022-09-28T09:20:18.880Z,18.49
2022-09-28T09:21:18.879Z,18.68
2022-09-28T09:22:18.887Z,18.79
2022-09-28T09:23:18.863Z,19.47
2022-09-28T09:24:19.021Z,19.98
2022-09-28T09:25:18.862Z,20.15
2022-09-28T09:26:23.755Z,20.39
2022-09-28T09:27:20.835Z,21.13
2022-09-28T09:28:18.827Z,21.56
2022-09-28T09:29:18.848Z,21.99
2022-09-28T09:30:20.405Z,21.79
2022-09-28T09:31:48.736Z,21.41
2022-09-28T09:32:49.755Z,21.76
2022-09-28T09:33:49.741Z,20.76
2022-09-28T09:34:49.760Z,20.33
2022-09-28T09:35:49.731Z,18.98
2022-09-28T09:36:49.747Z,17.92
2022-09-28T09:37:49.810Z,17.63
2022-09-28T09:38:49.700Z,17.47
2022-09-28T09:39:49.716Z,17.20
2022-09-28T09:40:49.853Z,16.70
2022-09-28T09:41:49.711Z,16.14
2022-09-28T09:42:49.688Z,15.60
2022-09-28T09:43:49.683Z,15.46
2022-09-28T09:44:49.745Z,14.87
2022-09-28T09:45:49.737Z,14.64
2022-09-28T09:46:49.679Z,14.47
2022-09-28T09:47:49.642Z,14.39
2022-09-28T09:48:49.643Z,14.09
2022-09-28T09:49:49.652Z,13.84
2022-09-28T09:50:49.632Z,13.61
2022-09-28T09:51:49.616Z,13.25
2022-09-28T09:52:49.645Z,12.95
2022-09-28T09:53:49.607Z,12.52
2022-09-28T09:54:49.599Z,12.27
2022-09-28T09:55:49.604Z,11.94
2022-09-28T09:56:49.596Z,11.94
2022-09-28T09:57:49.600Z,12.01
2022-09-28T09:58:49.578Z,11.93
2022-09-28T09:59:49.571Z,11.85
2022-09-28T10:00:49.555Z,11.75
2022-09-28T10:01:49.618Z,11.50
2022-09-28T10:02:49.644Z,11.62
2022-09-28T10:03:49.539Z,11.77
2022-09-28T10:04:49.552Z,11.93
2022-09-28T10:05:49.526Z,12.11
2022-09-28T10:06:49.524Z,12.13
2022-09-28T10:22:07.247Z,18.40
2022-09-28T10:23:08.332Z,19.66
2022-09-28T10:24:08.320Z,21.29
2022-09-28T10:25:08.310Z,21.83
2022-09-28T10:26:08.290Z,22.06
2022-09-28T10:27:08.299Z,22.25
2022-09-28T10:28:08.302Z,22.64
2022-09-28T10:29:08.283Z,22.68
2022-09-28T10:30:08.277Z,22.41
2022-09-28T10:32:08.260Z,21.95
2022-09-28T10:33:08.275Z,21.54
2022-09-28T10:34:08.252Z,20.79
2022-09-28T10:35:08.242Z,20.02
2022-09-28T10:36:08.244Z,19.15
2022-09-28T10:37:08.230Z,18.99
2022-09-28T10:38:08.233Z,18.39
2022-09-28T10:39:08.231Z,17.64
2022-09-28T10:40:08.211Z,17.33
2022-09-28T10:41:08.311Z,16.75
2022-09-28T10:42:08.198Z,16.25
2022-09-28T10:43:08.203Z,15.59
2022-09-28T10:44:08.195Z,15.38
2022-09-28T10:45:08.174Z,16.23
2022-09-28T10:46:08.278Z,17.20
2022-09-28T10:47:08.158Z,18.25
2022-09-28T10:48:08.154Z,18.95
2022-09-28T10:49:08.167Z,19.24
2022-09-28T10:50:08.143Z,20.03
2022-09-28T10:51:08.132Z,20.71
2022-09-28T10:52:08.126Z,20.99
2022-09-28T10:53:08.127Z,20.51
2022-09-28T10:54:08.111Z,19.88
2022-09-28T10:55:08.119Z,19.65
2022-09-28T10:56:08.106Z,19.23
2022-09-28T10:57:12.752Z,19.36
2022-09-28T10:58:09.095Z,19.35
2022-09-28T10:59:08.088Z,19.47
2022-09-28T11:00:08.079Z,18.61
2022-09-28T11:01:08.156Z,17.76
2022-09-28T11:02:08.132Z,17.22
2022-09-28T11:03:08.047Z,17.14
2022-09-28T11:04:08.067Z,17.11
2022-09-28T11:05:08.036Z,17.32
2022-09-28T11:06:08.034Z,17.14
2022-09-28T11:07:08.027Z,17.00
2022-09-28T11:08:08.030Z,17.04
2022-09-28T11:09:08.014Z,16.88
2022-09-28T11:10:08.019Z,17.28
2022-09-28T11:11:07.995Z,17.81
2022-09-28T11:12:07.990Z,17.78
2022-09-28T11:13:07.983Z,17.63
2022-09-28T11:14:07.971Z,17.62
2022-09-28T11:15:07.967Z,17.55
2022-09-28T11:16:07.959Z,17.17
2022-09-28T11:17:08.006Z,17.10
2022-09-28T11:18:07.974Z,16.81
2022-09-28T11:19:07.939Z,16.65
2022-09-28T11:20:07.946Z,16.27
2022-09-28T11:21:11.274Z,16.06
2022-09-28T11:22:11.534Z,15.81
2022-09-28T11:23:07.938Z,15.67
2022-09-28T11:24:07.908Z,15.56
2022-09-28T11:25:07.897Z,15.48
2022-09-28T11:26:07.898Z,15.54
2022-09-28T11:27:07.882Z,15.43
2022-09-28T11:28:07.886Z,15.39
2022-09-28T11:29:07.882Z,15.17
2022-09-28T11:30:08.878Z,15.20
2022-09-28T11:31:08.047Z,15.11
2022-09-28T11:32:09.605Z,15.03
2022-09-28T11:33:07.859Z,14.99
2022-09-28T11:34:07.842Z,14.81
2022-09-28T11:35:07.833Z,14.80
2022-09-28T11:36:07.823Z,14.39
2022-09-28T11:37:07.820Z,14.42
2022-09-28T11:38:07.818Z,14.28
2022-09-28T11:39:07.810Z,14.32
2022-09-28T11:40:07.798Z,14.10
2022-09-28T11:41:07.779Z,13.67
2022-09-28T11:42:07.791Z,13.55
2022-09-28T11:43:07.780Z,13.49
2022-09-28T11:44:07.787Z,13.54
2022-09-28T11:45:07.762Z,13.56
2022-09-28T11:46:07.798Z,13.55
2022-09-28T11:47:07.750Z,13.63
2022-09-28T11:48:07.750Z,13.84
2022-09-28T11:49:07.754Z,14.94
2022-09-28T11:50:07.730Z,15.61
2022-09-28T11:51:07.722Z,15.70
2022-09-28T11:52:07.711Z,15.99
2022-09-28T11:53:07.707Z,16.85
2022-09-28T11:54:07.726Z,17.62
2022-09-28T11:55:07.707Z,18.46
2022-09-28T11:56:09.021Z,19.29
2022-09-28T11:57:08.680Z,19.57
2022-09-28T11:58:07.678Z,20.00
2022-09-28T11:59:07.662Z,19.86
2022-09-28T12:00:07.674Z,19.63
2022-09-28T12:01:07.653Z,19.63
2022-09-28T12:02:07.696Z,18.04
2022-09-28T12:03:07.800Z,16.96
2022-09-28T12:04:07.634Z,16.18
2022-09-28T12:05:07.642Z,15.72
2022-09-28T12:06:07.852Z,15.30
2022-09-28T12:07:07.615Z,14.47
2022-09-28T12:08:07.599Z,14.19
2022-09-28T12:09:07.605Z,13.89
2022-09-28T12:10:07.595Z,13.73
2022-09-28T12:11:07.611Z,13.46
2022-09-28T12:12:07.585Z,13.29
2022-09-28T12:13:07.570Z,12.95
2022-09-28T12:14:07.571Z,12.81
2022-09-28T12:15:07.565Z,12.87
2022-09-28T12:16:27.681Z,12.88
2022-09-28T12:17:09.641Z,12.63
2022-09-28T12:18:07.587Z,12.63
2022-09-28T12:19:07.526Z,12.49
2022-09-28T12:20:07.523Z,12.66
2022-09-28T12:21:07.519Z,13.03
2022-09-28T12:22:07.517Z,13.18
2022-09-28T12:23:07.505Z,13.33
2022-09-28T12:24:07.490Z,13.29
2022-09-28T12:25:07.490Z,13.36
2022-09-28T12:26:07.482Z,13.70
2022-09-28T12:27:07.489Z,15.48
2022-09-28T12:28:07.472Z,17.18
2022-09-28T12:29:07.457Z,18.47
2022-09-28T12:30:07.520Z,19.93
2022-09-28T12:31:07.487Z,20.61
2022-09-28T12:32:07.457Z,20.77
2022-09-28T12:33:07.442Z,20.10
2022-09-28T12:34:07.426Z,19.76
2022-09-28T12:35:07.430Z,19.98
2022-09-28T12:36:07.418Z,20.71
2022-09-28T12:37:07.403Z,20.68
2022-09-28T12:38:07.402Z,20.61
2022-09-28T12:39:35.695Z,20.20
2022-09-28T12:40:09.386Z,19.69
2022-09-28T12:41:07.419Z,18.87
2022-09-28T12:42:07.373Z,18.44
2022-09-28T12:43:07.369Z,18.40
2022-09-28T12:44:07.367Z,18.02
2022-09-28T12:45:07.353Z,17.17
2022-09-28T12:46:11.972Z,16.37
2022-09-28T12:47:09.369Z,15.92
2022-09-28T12:48:07.349Z,15.75
2022-09-28T12:51:09.320Z,14.90
2022-09-28T12:52:07.302Z,14.62
2022-09-28T12:53:07.314Z,14.28
2022-09-28T12:54:07.294Z,14.01
2022-09-28T12:55:07.298Z,13.74
2022-09-28T12:56:07.273Z,13.55
2022-09-28T12:57:07.267Z,13.33
2022-09-28T12:58:07.262Z,13.25
2022-09-28T12:59:07.257Z,12.99
2022-09-28T13:00:07.253Z,12.93
2022-09-28T13:01:07.285Z,12.69
2022-09-28T13:02:07.269Z,12.52
2022-09-28T13:03:07.241Z,12.41
2022-09-28T13:04:11.427Z,12.34
2022-09-28T13:05:08.218Z,12.30
2022-09-28T13:06:07.238Z,12.37
2022-09-28T13:07:07.203Z,12.46
2022-09-28T13:08:07.198Z,12.44
2022-09-28T13:09:07.213Z,12.48
2022-09-28T13:10:07.203Z,12.54
2022-09-28T13:11:08.162Z,12.66
2022-09-28T13:12:08.174Z,12.57
2022-09-28T13:13:07.169Z,12.63
2022-09-28T13:14:07.157Z,12.70
2022-09-28T13:15:07.181Z,12.66
2022-09-28T13:16:07.292Z,12.60
2022-09-28T13:17:07.141Z,12.48
2022-09-28T13:18:07.133Z,12.57
2022-09-28T13:19:07.119Z,12.59
2022-09-28T13:20:08.130Z,12.63
2022-09-28T13:21:07.101Z,12.75
2022-09-28T13:22:07.109Z,12.88
2022-09-28T13:23:07.102Z,12.71